sensor_id;sensor_type;location;lat;lon;timestamp;P1;durP1;ratioP1;P2;durP2;ratioP2
22794;SDS011;11564;50.920;11.612;2023-04-03T00:01:11;2.00;;;1.37;;
22794;SDS011;11564;50.920;11.612;2023-04-03T00:03:37;3.57;;;1.43;;
22794;SDS011;11564;50.920;11.612;2023-04-03T00:06:03;2.00;;;1.30;;
22794;SDS011;11564;50.920;11.612;2023-04-03T00:08:31;4.20;;;1.70;;
22794;SDS011;11564;50.920;11.612;2023-04-03T00:10:57;2.30;;;1.30;;
22794;SDS011;11564;50.920;11.612;2023-04-03T00:13:24;2.33;;;1.10;;
22794;SDS011;11564;50.920;11.612;2023-04-03T00:15:50;4.20;;;1.53;;
22794;SDS011;11564;50.920;11.612;2023-04-03T00:18:16;7.47;;;1.40;;
22794;SDS011;11564;50.920;11.612;2023-04-03T00:20:42;3.30;;;1.27;;
22794;SDS011;11564;50.920;11.612;2023-04-03T00:23:08;2.50;;;1.37;;
22794;SDS011;11564;50.920;11.612;2023-04-03T00:25:34;2.60;;;1.70;;
22794;SDS011;11564;50.920;11.612;2023-04-03T00:28:00;5.70;;;1.07;;
22794;SDS011;11564;50.920;11.612;2023-04-03T00:30:26;4.80;;;1.47;;
22794;SDS011;11564;50.920;11.612;2023-04-03T00:32:52;6.60;;;1.50;;
22794;SDS011;11564;50.920;11.612;2023-04-03T00:35:18;1.73;;;1.27;;
22794;SDS011;11564;50.920;11.612;2023-04-03T00:37:45;8.63;;;1.50;;
22794;SDS011;11564;50.920;11.612;2023-04-03T00:40:12;6.77;;;1.47;;
22794;SDS011;11564;50.920;11.612;2023-04-03T00:42:40;2.63;;;1.30;;
22794;SDS011;11564;50.920;11.612;2023-04-03T00:47:36;1.57;;;1.27;;
22794;SDS011;11564;50.920;11.612;2023-04-03T00:50:02;3.13;;;1.67;;
22794;SDS011;11564;50.920;11.612;2023-04-03T00:52:29;6.67;;;1.30;;
22794;SDS011;11564;50.920;11.612;2023-04-03T00:54:57;2.50;;;1.30;;
22794;SDS011;11564;50.920;11.612;2023-04-03T00:57:27;1.63;;;1.10;;
22794;SDS011;11564;50.920;11.612;2023-04-03T00:59:57;5.03;;;1.50;;
22794;SDS011;11564;50.920;11.612;2023-04-03T01:02:27;7.77;;;2.07;;
22794;SDS011;11564;50.920;11.612;2023-04-03T01:04:53;3.83;;;2.13;;
22794;SDS011;11564;50.920;11.612;2023-04-03T01:07:22;5.53;;;1.97;;
22794;SDS011;11564;50.920;11.612;2023-04-03T01:09:53;2.73;;;1.50;;
22794;SDS011;11564;50.920;11.612;2023-04-03T01:14:54;2.90;;;1.63;;
22794;SDS011;11564;50.920;11.612;2023-04-03T01:22:42;4.00;;;1.53;;
22794;SDS011;11564;50.920;11.612;2023-04-03T01:25:18;13.53;;;2.13;;
22794;SDS011;11564;50.920;11.612;2023-04-03T01:27:44;4.30;;;1.93;;
22794;SDS011;11564;50.920;11.612;2023-04-03T01:30:10;9.70;;;2.20;;
22794;SDS011;11564;50.920;11.612;2023-04-03T01:32:37;7.93;;;2.10;;
22794;SDS011;11564;50.920;11.612;2023-04-03T01:35:03;6.83;;;2.50;;
22794;SDS011;11564;50.920;11.612;2023-04-03T01:37:29;2.87;;;2.07;;
22794;SDS011;11564;50.920;11.612;2023-04-03T01:39:55;3.00;;;1.83;;
22794;SDS011;11564;50.920;11.612;2023-04-03T01:42:20;5.30;;;2.53;;
22794;SDS011;11564;50.920;11.612;2023-04-03T01:44:46;2.73;;;2.13;;
22794;SDS011;11564;50.920;11.612;2023-04-03T01:47:12;6.00;;;2.17;;
22794;SDS011;11564;50.920;11.612;2023-04-03T01:49:37;4.50;;;2.10;;
22794;SDS011;11564;50.920;11.612;2023-04-03T01:52:03;2.13;;;1.80;;
22794;SDS011;11564;50.920;11.612;2023-04-03T01:54:29;5.90;;;1.90;;
22794;SDS011;11564;50.920;11.612;2023-04-03T01:56:54;8.77;;;2.80;;
22794;SDS011;11564;50.920;11.612;2023-04-03T01:59:20;4.57;;;2.07;;
22794;SDS011;11564;50.920;11.612;2023-04-03T02:01:46;3.70;;;2.40;;
22794;SDS011;11564;50.920;11.612;2023-04-03T02:04:12;3.37;;;1.90;;
22794;SDS011;11564;50.920;11.612;2023-04-03T02:06:37;7.47;;;2.70;;
22794;SDS011;11564;50.920;11.612;2023-04-03T02:09:03;3.30;;;2.47;;
22794;SDS011;11564;50.920;11.612;2023-04-03T02:11:29;2.07;;;1.97;;
22794;SDS011;11564;50.920;11.612;2023-04-03T02:13:56;13.57;;;2.33;;
22794;SDS011;11564;50.920;11.612;2023-04-03T02:16:21;4.23;;;2.00;;
22794;SDS011;11564;50.920;11.612;2023-04-03T02:18:47;2.80;;;1.83;;
22794;SDS011;11564;50.920;11.612;2023-04-03T02:21:12;5.47;;;2.03;;
22794;SDS011;11564;50.920;11.612;2023-04-03T02:23:38;4.20;;;2.23;;
22794;SDS011;11564;50.920;11.612;2023-04-03T02:26:08;3.97;;;2.27;;
22794;SDS011;11564;50.920;11.612;2023-04-03T02:28:36;3.10;;;1.63;;
22794;SDS011;11564;50.920;11.612;2023-04-03T02:31:02;4.57;;;2.30;;
22794;SDS011;11564;50.920;11.612;2023-04-03T02:33:29;4.87;;;2.47;;
22794;SDS011;11564;50.920;11.612;2023-04-03T02:35:55;1.63;;;1.37;;
22794;SDS011;11564;50.920;11.612;2023-04-03T02:38:22;3.23;;;2.03;;
22794;SDS011;11564;50.920;11.612;2023-04-03T02:40:48;4.57;;;1.87;;
22794;SDS011;11564;50.920;11.612;2023-04-03T02:43:14;3.97;;;1.97;;
22794;SDS011;11564;50.920;11.612;2023-04-03T02:45:39;7.83;;;2.40;;
22794;SDS011;11564;50.920;11.612;2023-04-03T02:48:05;7.87;;;2.00;;
22794;SDS011;11564;50.920;11.612;2023-04-03T02:50:31;4.63;;;2.00;;
22794;SDS011;11564;50.920;11.612;2023-04-03T02:52:57;6.07;;;1.70;;
22794;SDS011;11564;50.920;11.612;2023-04-03T02:55:22;12.23;;;2.77;;
22794;SDS011;11564;50.920;11.612;2023-04-03T02:57:48;6.30;;;2.90;;
22794;SDS011;11564;50.920;11.612;2023-04-03T03:00:14;5.70;;;1.97;;
22794;SDS011;11564;50.920;11.612;2023-04-03T03:02:39;8.87;;;2.47;;
22794;SDS011;11564;50.920;11.612;2023-04-03T03:05:05;10.47;;;2.00;;
22794;SDS011;11564;50.920;11.612;2023-04-03T03:07:32;4.33;;;2.80;;
22794;SDS011;11564;50.920;11.612;2023-04-03T03:09:58;5.33;;;2.23;;
22794;SDS011;11564;50.920;11.612;2023-04-03T03:12:23;5.07;;;2.43;;
22794;SDS011;11564;50.920;11.612;2023-04-03T03:14:49;4.30;;;2.40;;
22794;SDS011;11564;50.920;11.612;2023-04-03T03:17:15;4.27;;;2.47;;
22794;SDS011;11564;50.920;11.612;2023-04-03T03:19:41;8.30;;;3.17;;
22794;SDS011;11564;50.920;11.612;2023-04-03T03:22:07;6.20;;;2.37;;
22794;SDS011;11564;50.920;11.612;2023-04-03T03:24:33;3.40;;;2.23;;
22794;SDS011;11564;50.920;11.612;2023-04-03T03:26:58;4.53;;;2.77;;
22794;SDS011;11564;50.920;11.612;2023-04-03T03:29:24;3.10;;;2.13;;
22794;SDS011;11564;50.920;11.612;2023-04-03T03:31:49;5.97;;;2.30;;
22794;SDS011;11564;50.920;11.612;2023-04-03T03:34:15;2.77;;;2.33;;
22794;SDS011;11564;50.920;11.612;2023-04-03T03:36:41;6.90;;;2.90;;
22794;SDS011;11564;50.920;11.612;2023-04-03T03:39:07;5.37;;;2.47;;
22794;SDS011;11564;50.920;11.612;2023-04-03T03:41:32;5.30;;;2.30;;
22794;SDS011;11564;50.920;11.612;2023-04-03T03:43:58;9.13;;;2.27;;
22794;SDS011;11564;50.920;11.612;2023-04-03T03:46:23;3.17;;;1.97;;
22794;SDS011;11564;50.920;11.612;2023-04-03T03:48:49;6.43;;;2.47;;
22794;SDS011;11564;50.920;11.612;2023-04-03T03:51:15;2.10;;;1.60;;
22794;SDS011;11564;50.920;11.612;2023-04-03T03:53:40;4.83;;;2.17;;
22794;SDS011;11564;50.920;11.612;2023-04-03T03:56:06;6.23;;;2.00;;
22794;SDS011;11564;50.920;11.612;2023-04-03T03:58:32;2.13;;;1.80;;
22794;SDS011;11564;50.920;11.612;2023-04-03T04:01:04;3.93;;;2.07;;
22794;SDS011;11564;50.920;11.612;2023-04-03T04:03:31;4.80;;;1.87;;
22794;SDS011;11564;50.920;11.612;2023-04-03T04:05:57;8.30;;;2.00;;
22794;SDS011;11564;50.920;11.612;2023-04-03T04:08:23;4.30;;;1.80;;
22794;SDS011;11564;50.920;11.612;2023-04-03T04:10:48;3.20;;;1.63;;
22794;SDS011;11564;50.920;11.612;2023-04-03T04:13:14;5.00;;;1.70;;
22794;SDS011;11564;50.920;11.612;2023-04-03T04:15:40;2.50;;;1.63;;
22794;SDS011;11564;50.920;11.612;2023-04-03T04:18:05;6.80;;;2.90;;
22794;SDS011;11564;50.920;11.612;2023-04-03T04:20:31;7.13;;;3.10;;
22794;SDS011;11564;50.920;11.612;2023-04-03T04:22:57;3.33;;;2.17;;
22794;SDS011;11564;50.920;11.612;2023-04-03T04:25:22;7.27;;;1.70;;
22794;SDS011;11564;50.920;11.612;2023-04-03T04:27:48;4.63;;;1.47;;
22794;SDS011;11564;50.920;11.612;2023-04-03T04:30:14;5.13;;;2.07;;
22794;SDS011;11564;50.920;11.612;2023-04-03T04:32:39;3.97;;;1.90;;
22794;SDS011;11564;50.920;11.612;2023-04-03T04:35:05;3.23;;;1.87;;
22794;SDS011;11564;50.920;11.612;2023-04-03T04:37:31;9.80;;;3.63;;
22794;SDS011;11564;50.920;11.612;2023-04-03T04:39:57;4.00;;;2.13;;
22794;SDS011;11564;50.920;11.612;2023-04-03T04:42:22;6.23;;;2.23;;
22794;SDS011;11564;50.920;11.612;2023-04-03T04:44:48;5.63;;;3.43;;
22794;SDS011;11564;50.920;11.612;2023-04-03T04:47:14;6.63;;;2.20;;
22794;SDS011;11564;50.920;11.612;2023-04-03T04:49:39;2.90;;;2.00;;
22794;SDS011;11564;50.920;11.612;2023-04-03T04:52:05;5.20;;;2.53;;
22794;SDS011;11564;50.920;11.612;2023-04-03T04:54:31;3.00;;;1.80;;
22794;SDS011;11564;50.920;11.612;2023-04-03T04:56:57;5.07;;;1.53;;
22794;SDS011;11564;50.920;11.612;2023-04-03T04:59:23;21.23;;;2.10;;
22794;SDS011;11564;50.920;11.612;2023-04-03T05:01:48;2.30;;;2.10;;
22794;SDS011;11564;50.920;11.612;2023-04-03T05:04:14;4.90;;;2.80;;
22794;SDS011;11564;50.920;11.612;2023-04-03T05:06:40;6.07;;;2.10;;
22794;SDS011;11564;50.920;11.612;2023-04-03T05:09:06;10.33;;;2.40;;
22794;SDS011;11564;50.920;11.612;2023-04-03T05:11:32;8.80;;;2.50;;
22794;SDS011;11564;50.920;11.612;2023-04-03T05:13:57;5.33;;;3.00;;
22794;SDS011;11564;50.920;11.612;2023-04-03T05:16:23;6.93;;;2.20;;
22794;SDS011;11564;50.920;11.612;2023-04-03T05:18:49;7.77;;;2.63;;
22794;SDS011;11564;50.920;11.612;2023-04-03T05:21:15;4.60;;;2.43;;
22794;SDS011;11564;50.920;11.612;2023-04-03T05:23:40;7.57;;;2.50;;
22794;SDS011;11564;50.920;11.612;2023-04-03T05:26:06;8.37;;;2.33;;
22794;SDS011;11564;50.920;11.612;2023-04-03T05:28:32;2.60;;;1.70;;
22794;SDS011;11564;50.920;11.612;2023-04-03T05:30:57;2.50;;;1.13;;
22794;SDS011;11564;50.920;11.612;2023-04-03T05:33:24;2.73;;;1.80;;
22794;SDS011;11564;50.920;11.612;2023-04-03T05:35:51;9.03;;;1.80;;
22794;SDS011;11564;50.920;11.612;2023-04-03T05:38:17;2.23;;;1.90;;
22794;SDS011;11564;50.920;11.612;2023-04-03T05:40:43;2.70;;;1.93;;
22794;SDS011;11564;50.920;11.612;2023-04-03T05:43:09;5.43;;;2.27;;
22794;SDS011;11564;50.920;11.612;2023-04-03T05:45:34;2.93;;;1.83;;
22794;SDS011;11564;50.920;11.612;2023-04-03T05:48:00;5.77;;;2.17;;
22794;SDS011;11564;50.920;11.612;2023-04-03T05:50:26;6.37;;;2.07;;
22794;SDS011;11564;50.920;11.612;2023-04-03T05:52:52;5.23;;;2.20;;
22794;SDS011;11564;50.920;11.612;2023-04-03T05:55:20;9.43;;;3.57;;
22794;SDS011;11564;50.920;11.612;2023-04-03T05:57:45;20.30;;;2.67;;
22794;SDS011;11564;50.920;11.612;2023-04-03T06:00:12;5.23;;;2.10;;
22794;SDS011;11564;50.920;11.612;2023-04-03T06:02:40;9.70;;;2.70;;
22794;SDS011;11564;50.920;11.612;2023-04-03T06:05:07;8.07;;;3.33;;
22794;SDS011;11564;50.920;11.612;2023-04-03T06:07:34;7.57;;;2.97;;
22794;SDS011;11564;50.920;11.612;2023-04-03T06:10:00;5.90;;;2.40;;
22794;SDS011;11564;50.920;11.612;2023-04-03T06:12:26;5.13;;;2.40;;
22794;SDS011;11564;50.920;11.612;2023-04-03T06:14:53;4.97;;;1.80;;
22794;SDS011;11564;50.920;11.612;2023-04-03T06:17:19;4.77;;;2.10;;
22794;SDS011;11564;50.920;11.612;2023-04-03T06:19:45;7.60;;;2.33;;
22794;SDS011;11564;50.920;11.612;2023-04-03T06:22:10;6.53;;;1.90;;
22794;SDS011;11564;50.920;11.612;2023-04-03T06:24:36;3.97;;;1.80;;
22794;SDS011;11564;50.920;11.612;2023-04-03T06:27:03;1.40;;;1.30;;
22794;SDS011;11564;50.920;11.612;2023-04-03T06:29:28;6.10;;;1.90;;
22794;SDS011;11564;50.920;11.612;2023-04-03T06:31:54;2.50;;;1.87;;
22794;SDS011;11564;50.920;11.612;2023-04-03T06:34:20;3.30;;;1.57;;
22794;SDS011;11564;50.920;11.612;2023-04-03T06:36:46;6.63;;;1.57;;
22794;SDS011;11564;50.920;11.612;2023-04-03T06:39:16;1.93;;;1.40;;
22794;SDS011;11564;50.920;11.612;2023-04-03T06:41:43;17.33;;;2.00;;
22794;SDS011;11564;50.920;11.612;2023-04-03T06:44:09;5.50;;;2.07;;
22794;SDS011;11564;50.920;11.612;2023-04-03T06:46:36;2.77;;;1.63;;
22794;SDS011;11564;50.920;11.612;2023-04-03T06:49:03;3.27;;;1.87;;
22794;SDS011;11564;50.920;11.612;2023-04-03T06:51:29;4.23;;;1.93;;
22794;SDS011;11564;50.920;11.612;2023-04-03T06:53:56;6.43;;;1.97;;
22794;SDS011;11564;50.920;11.612;2023-04-03T06:56:23;4.93;;;1.63;;
22794;SDS011;11564;50.920;11.612;2023-04-03T06:58:50;3.27;;;1.53;;
22794;SDS011;11564;50.920;11.612;2023-04-03T07:01:17;3.47;;;2.17;;
22794;SDS011;11564;50.920;11.612;2023-04-03T07:03:46;2.30;;;1.60;;
22794;SDS011;11564;50.920;11.612;2023-04-03T07:06:16;4.90;;;1.67;;
22794;SDS011;11564;50.920;11.612;2023-04-03T07:08:43;5.90;;;1.90;;
22794;SDS011;11564;50.920;11.612;2023-04-03T07:11:10;2.83;;;1.77;;
22794;SDS011;11564;50.920;11.612;2023-04-03T07:13:36;6.83;;;1.93;;
22794;SDS011;11564;50.920;11.612;2023-04-03T07:16:03;9.80;;;2.90;;
22794;SDS011;11564;50.920;11.612;2023-04-03T07:18:30;2.17;;;1.57;;
22794;SDS011;11564;50.920;11.612;2023-04-03T07:20:56;5.37;;;2.40;;
22794;SDS011;11564;50.920;11.612;2023-04-03T07:23:22;5.17;;;2.23;;
22794;SDS011;11564;50.920;11.612;2023-04-03T07:25:49;5.03;;;2.23;;
22794;SDS011;11564;50.920;11.612;2023-04-03T07:28:16;5.90;;;2.30;;
22794;SDS011;11564;50.920;11.612;2023-04-03T07:30:43;6.00;;;2.70;;
22794;SDS011;11564;50.920;11.612;2023-04-03T07:33:14;4.70;;;2.50;;
22794;SDS011;11564;50.920;11.612;2023-04-03T07:35:42;12.18;;;3.17;;
22794;SDS011;11564;50.920;11.612;2023-04-03T07:38:08;17.90;;;3.93;;
22794;SDS011;11564;50.920;11.612;2023-04-03T07:40:34;5.50;;;4.27;;
22794;SDS011;11564;50.920;11.612;2023-04-03T07:43:00;8.57;;;3.80;;
22794;SDS011;11564;50.920;11.612;2023-04-03T07:45:27;11.27;;;5.30;;
22794;SDS011;11564;50.920;11.612;2023-04-03T07:47:54;10.43;;;4.17;;
22794;SDS011;11564;50.920;11.612;2023-04-03T07:50:19;6.50;;;4.27;;
22794;SDS011;11564;50.920;11.612;2023-04-03T07:52:46;8.03;;;4.10;;
22794;SDS011;11564;50.920;11.612;2023-04-03T07:55:12;5.67;;;3.87;;
22794;SDS011;11564;50.920;11.612;2023-04-03T07:57:38;8.50;;;4.80;;
22794;SDS011;11564;50.920;11.612;2023-04-03T08:00:05;8.40;;;4.50;;
22794;SDS011;11564;50.920;11.612;2023-04-03T08:02:31;8.17;;;4.03;;
22794;SDS011;11564;50.920;11.612;2023-04-03T08:04:57;10.47;;;4.20;;
22794;SDS011;11564;50.920;11.612;2023-04-03T08:07:23;3.97;;;3.37;;
22794;SDS011;11564;50.920;11.612;2023-04-03T08:09:50;10.83;;;4.40;;
22794;SDS011;11564;50.920;11.612;2023-04-03T08:12:16;5.80;;;3.80;;
22794;SDS011;11564;50.920;11.612;2023-04-03T08:14:41;10.77;;;3.50;;
22794;SDS011;11564;50.920;11.612;2023-04-03T08:17:07;6.70;;;3.27;;
22794;SDS011;11564;50.920;11.612;2023-04-03T08:19:36;6.50;;;3.40;;
22794;SDS011;11564;50.920;11.612;2023-04-03T08:22:03;11.43;;;2.87;;
22794;SDS011;11564;50.920;11.612;2023-04-03T08:24:30;3.30;;;3.00;;
22794;SDS011;11564;50.920;11.612;2023-04-03T08:26:56;3.87;;;2.70;;
22794;SDS011;11564;50.920;11.612;2023-04-03T08:29:22;4.53;;;2.50;;
22794;SDS011;11564;50.920;11.612;2023-04-03T08:31:48;4.40;;;2.33;;
22794;SDS011;11564;50.920;11.612;2023-04-03T08:34:15;3.20;;;2.23;;
22794;SDS011;11564;50.920;11.612;2023-04-03T08:36:41;3.43;;;2.20;;
22794;SDS011;11564;50.920;11.612;2023-04-03T08:39:06;7.43;;;2.73;;
22794;SDS011;11564;50.920;11.612;2023-04-03T08:47:01;1.70;;;1.60;;
22794;SDS011;11564;50.920;11.612;2023-04-03T08:49:49;3.63;;;1.90;;
22794;SDS011;11564;50.920;11.612;2023-04-03T08:52:32;3.93;;;1.70;;
22794;SDS011;11564;50.920;11.612;2023-04-03T08:55:05;2.23;;;1.60;;
22794;SDS011;11564;50.920;11.612;2023-04-03T08:57:43;4.03;;;1.87;;
22794;SDS011;11564;50.920;11.612;2023-04-03T09:05:14;5.43;;;1.67;;
22794;SDS011;11564;50.920;11.612;2023-04-03T09:07:45;2.70;;;2.00;;
22794;SDS011;11564;50.920;11.612;2023-04-03T09:10:15;2.80;;;2.17;;
22794;SDS011;11564;50.920;11.612;2023-04-03T09:12:57;2.53;;;1.43;;
22794;SDS011;11564;50.920;11.612;2023-04-03T09:15:38;2.23;;;2.00;;
22794;SDS011;11564;50.920;11.612;2023-04-03T09:18:06;2.93;;;1.60;;
22794;SDS011;11564;50.920;11.612;2023-04-03T09:23:28;2.73;;;1.50;;
22794;SDS011;11564;50.920;11.612;2023-04-03T09:26:00;2.30;;;1.53;;
22794;SDS011;11564;50.920;11.612;2023-04-03T09:28:37;3.33;;;1.70;;
22794;SDS011;11564;50.920;11.612;2023-04-03T09:31:26;5.97;;;1.87;;
22794;SDS011;11564;50.920;11.612;2023-04-03T09:34:02;3.47;;;2.40;;
22794;SDS011;11564;50.920;11.612;2023-04-03T09:36:39;6.03;;;1.70;;
22794;SDS011;11564;50.920;11.612;2023-04-03T09:39:08;3.60;;;2.03;;
22794;SDS011;11564;50.920;11.612;2023-04-03T09:42:05;1.80;;;1.70;;
22794;SDS011;11564;50.920;11.612;2023-04-03T09:44:40;1.53;;;1.40;;
22794;SDS011;11564;50.920;11.612;2023-04-03T09:47:25;2.07;;;1.60;;
22794;SDS011;11564;50.920;11.612;2023-04-03T09:52:38;2.40;;;1.20;;
22794;SDS011;11564;50.920;11.612;2023-04-03T09:55:07;1.93;;;1.47;;
22794;SDS011;11564;50.920;11.612;2023-04-03T09:57:39;1.90;;;1.40;;
22794;SDS011;11564;50.920;11.612;2023-04-03T10:00:05;2.40;;;0.93;;
22794;SDS011;11564;50.920;11.612;2023-04-03T10:02:43;2.47;;;1.17;;
22794;SDS011;11564;50.920;11.612;2023-04-03T10:10:33;6.93;;;1.00;;
22794;SDS011;11564;50.920;11.612;2023-04-03T10:13:12;1.40;;;0.60;;
22794;SDS011;11564;50.920;11.612;2023-04-03T10:15:46;2.83;;;0.60;;
22794;SDS011;11564;50.920;11.612;2023-04-03T10:20:52;3.60;;;1.07;;
22794;SDS011;11564;50.920;11.612;2023-04-03T10:34:43;1.70;;;0.63;;
22794;SDS011;11564;50.920;11.612;2023-04-03T10:37:13;2.53;;;1.00;;
22794;SDS011;11564;50.920;11.612;2023-04-03T10:42:44;2.87;;;1.03;;
22794;SDS011;11564;50.920;11.612;2023-04-03T10:45:31;4.67;;;1.03;;
22794;SDS011;11564;50.920;11.612;2023-04-03T10:51:12;1.10;;;0.80;;
22794;SDS011;11564;50.920;11.612;2023-04-03T10:58:56;3.07;;;0.97;;
22794;SDS011;11564;50.920;11.612;2023-04-03T11:01:33;2.67;;;0.97;;
22794;SDS011;11564;50.920;11.612;2023-04-03T11:04:04;1.57;;;0.93;;
22794;SDS011;11564;50.920;11.612;2023-04-03T11:09:29;2.00;;;0.90;;
22794;SDS011;11564;50.920;11.612;2023-04-03T11:12:13;1.57;;;1.00;;
22794;SDS011;11564;50.920;11.612;2023-04-03T11:14:50;1.00;;;0.67;;
22794;SDS011;11564;50.920;11.612;2023-04-03T11:20:04;4.40;;;1.20;;
22794;SDS011;11564;50.920;11.612;2023-04-03T11:22:47;3.23;;;0.90;;
22794;SDS011;11564;50.920;11.612;2023-04-03T11:25:18;2.03;;;0.87;;
22794;SDS011;11564;50.920;11.612;2023-04-03T11:27:56;3.27;;;0.90;;
22794;SDS011;11564;50.920;11.612;2023-04-03T11:36:18;4.27;;;1.00;;
22794;SDS011;11564;50.920;11.612;2023-04-03T11:38:54;3.90;;;1.20;;
22794;SDS011;11564;50.920;11.612;2023-04-03T11:41:29;2.63;;;0.80;;
22794;SDS011;11564;50.920;11.612;2023-04-03T11:43:58;1.80;;;1.33;;
22794;SDS011;11564;50.920;11.612;2023-04-03T12:49:38;5.07;;;0.87;;
22794;SDS011;11564;50.920;11.612;2023-04-03T12:52:22;2.50;;;1.63;;
22794;SDS011;11564;50.920;11.612;2023-04-03T12:55:15;2.50;;;1.00;;
22794;SDS011;11564;50.920;11.612;2023-04-03T12:57:42;2.93;;;0.87;;
22794;SDS011;11564;50.920;11.612;2023-04-03T13:02:52;2.20;;;1.40;;
22794;SDS011;11564;50.920;11.612;2023-04-03T13:05:18;2.67;;;1.17;;
22794;SDS011;11564;50.920;11.612;2023-04-03T13:07:49;1.50;;;1.10;;
22794;SDS011;11564;50.920;11.612;2023-04-03T13:10:21;1.07;;;0.73;;
22794;SDS011;11564;50.920;11.612;2023-04-03T13:12:48;3.93;;;0.70;;
22794;SDS011;11564;50.920;11.612;2023-04-03T13:15:23;4.40;;;1.10;;
22794;SDS011;11564;50.920;11.612;2023-04-03T13:17:52;4.27;;;1.23;;
22794;SDS011;11564;50.920;11.612;2023-04-03T13:20:20;3.97;;;1.50;;
22794;SDS011;11564;50.920;11.612;2023-04-03T13:23:07;2.60;;;1.20;;
22794;SDS011;11564;50.920;11.612;2023-04-03T13:25:40;2.33;;;1.20;;
22794;SDS011;11564;50.920;11.612;2023-04-03T13:28:10;2.00;;;1.23;;
22794;SDS011;11564;50.920;11.612;2023-04-03T13:30:38;3.13;;;1.17;;
22794;SDS011;11564;50.920;11.612;2023-04-03T13:33:17;3.70;;;1.60;;
22794;SDS011;11564;50.920;11.612;2023-04-03T13:35:47;1.80;;;1.27;;
22794;SDS011;11564;50.920;11.612;2023-04-03T13:40:55;2.50;;;1.13;;
22794;SDS011;11564;50.920;11.612;2023-04-03T13:43:24;1.73;;;1.20;;
22794;SDS011;11564;50.920;11.612;2023-04-03T13:46:05;3.27;;;1.30;;
22794;SDS011;11564;50.920;11.612;2023-04-03T13:48:53;1.50;;;1.40;;
22794;SDS011;11564;50.920;11.612;2023-04-03T13:53:55;2.00;;;1.03;;
22794;SDS011;11564;50.920;11.612;2023-04-03T13:58:56;1.83;;;1.60;;
22794;SDS011;11564;50.920;11.612;2023-04-03T14:01:22;1.67;;;1.57;;
22794;SDS011;11564;50.920;11.612;2023-04-03T14:03:56;2.73;;;1.73;;
22794;SDS011;11564;50.920;11.612;2023-04-03T14:06:26;4.20;;;1.20;;
22794;SDS011;11564;50.920;11.612;2023-04-03T14:08:52;3.53;;;1.57;;
22794;SDS011;11564;50.920;11.612;2023-04-03T14:11:19;3.10;;;1.50;;
22794;SDS011;11564;50.920;11.612;2023-04-03T14:13:47;2.73;;;1.13;;
22794;SDS011;11564;50.920;11.612;2023-04-03T14:16:24;2.23;;;1.53;;
22794;SDS011;11564;50.920;11.612;2023-04-03T14:18:52;3.07;;;1.50;;
22794;SDS011;11564;50.920;11.612;2023-04-03T14:21:18;4.40;;;1.37;;
22794;SDS011;11564;50.920;11.612;2023-04-03T14:23:46;5.90;;;1.67;;
22794;SDS011;11564;50.920;11.612;2023-04-03T14:26:16;4.67;;;1.60;;
22794;SDS011;11564;50.920;11.612;2023-04-03T14:28:45;2.37;;;1.10;;
22794;SDS011;11564;50.920;11.612;2023-04-03T14:31:12;2.50;;;0.90;;
22794;SDS011;11564;50.920;11.612;2023-04-03T14:33:39;3.93;;;1.37;;
22794;SDS011;11564;50.920;11.612;2023-04-03T14:36:16;4.10;;;0.90;;
22794;SDS011;11564;50.920;11.612;2023-04-03T14:38:45;4.00;;;1.43;;
22794;SDS011;11564;50.920;11.612;2023-04-03T14:41:15;3.73;;;1.47;;
22794;SDS011;11564;50.920;11.612;2023-04-03T14:43:44;2.00;;;1.53;;
22794;SDS011;11564;50.920;11.612;2023-04-03T14:46:15;2.90;;;1.40;;
22794;SDS011;11564;50.920;11.612;2023-04-03T14:48:55;2.90;;;1.60;;
22794;SDS011;11564;50.920;11.612;2023-04-03T14:51:21;4.50;;;1.33;;
22794;SDS011;11564;50.920;11.612;2023-04-03T14:53:46;2.97;;;1.53;;
22794;SDS011;11564;50.920;11.612;2023-04-03T14:56:16;2.20;;;1.23;;
22794;SDS011;11564;50.920;11.612;2023-04-03T14:58:47;2.40;;;1.27;;
22794;SDS011;11564;50.920;11.612;2023-04-03T15:01:15;1.93;;;1.40;;
22794;SDS011;11564;50.920;11.612;2023-04-03T15:03:42;2.27;;;0.83;;
22794;SDS011;11564;50.920;11.612;2023-04-03T15:06:11;3.33;;;1.07;;
22794;SDS011;11564;50.920;11.612;2023-04-03T15:08:39;1.40;;;1.30;;
22794;SDS011;11564;50.920;11.612;2023-04-03T15:11:06;3.50;;;0.97;;
22794;SDS011;11564;50.920;11.612;2023-04-03T15:13:33;4.07;;;1.30;;
22794;SDS011;11564;50.920;11.612;2023-04-03T15:15:59;1.67;;;1.40;;
22794;SDS011;11564;50.920;11.612;2023-04-03T15:18:25;1.70;;;1.50;;
22794;SDS011;11564;50.920;11.612;2023-04-03T15:20:52;1.80;;;1.57;;
22794;SDS011;11564;50.920;11.612;2023-04-03T15:23:19;1.77;;;1.43;;
22794;SDS011;11564;50.920;11.612;2023-04-03T15:25:45;3.50;;;0.90;;
22794;SDS011;11564;50.920;11.612;2023-04-03T15:30:52;2.60;;;1.10;;
22794;SDS011;11564;50.920;11.612;2023-04-03T15:33:18;1.73;;;1.30;;
22794;SDS011;11564;50.920;11.612;2023-04-03T15:35:43;1.40;;;1.07;;
22794;SDS011;11564;50.920;11.612;2023-04-03T15:38:09;3.57;;;1.50;;
22794;SDS011;11564;50.920;11.612;2023-04-03T15:40:35;1.53;;;1.03;;
22794;SDS011;11564;50.920;11.612;2023-04-03T15:43:01;2.53;;;1.13;;
22794;SDS011;11564;50.920;11.612;2023-04-03T15:45:30;1.57;;;1.47;;
22794;SDS011;11564;50.920;11.612;2023-04-03T15:47:56;1.73;;;1.00;;
22794;SDS011;11564;50.920;11.612;2023-04-03T15:50:22;1.83;;;1.00;;
22794;SDS011;11564;50.920;11.612;2023-04-03T15:52:49;3.53;;;0.80;;
22794;SDS011;11564;50.920;11.612;2023-04-03T15:55:20;1.63;;;1.53;;
22794;SDS011;11564;50.920;11.612;2023-04-03T15:57:47;3.37;;;0.90;;
22794;SDS011;11564;50.920;11.612;2023-04-03T16:00:12;2.23;;;1.40;;
22794;SDS011;11564;50.920;11.612;2023-04-03T16:02:39;1.70;;;1.23;;
22794;SDS011;11564;50.920;11.612;2023-04-03T16:05:06;2.20;;;1.20;;
22794;SDS011;11564;50.920;11.612;2023-04-03T16:07:33;3.20;;;1.47;;
22794;SDS011;11564;50.920;11.612;2023-04-03T16:09:59;2.40;;;1.17;;
22794;SDS011;11564;50.920;11.612;2023-04-03T16:12:25;1.60;;;1.50;;
22794;SDS011;11564;50.920;11.612;2023-04-03T16:14:51;2.03;;;1.23;;
22794;SDS011;11564;50.920;11.612;2023-04-03T16:17:16;1.10;;;0.90;;
22794;SDS011;11564;50.920;11.612;2023-04-03T16:19:42;3.50;;;1.50;;
22794;SDS011;11564;50.920;11.612;2023-04-03T16:22:08;3.60;;;1.17;;
22794;SDS011;11564;50.920;11.612;2023-04-03T16:24:33;3.33;;;1.30;;
22794;SDS011;11564;50.920;11.612;2023-04-03T16:27:00;4.13;;;1.80;;
22794;SDS011;11564;50.920;11.612;2023-04-03T16:29:26;2.60;;;1.30;;
22794;SDS011;11564;50.920;11.612;2023-04-03T16:31:52;1.50;;;1.40;;
22794;SDS011;11564;50.920;11.612;2023-04-03T16:34:18;1.30;;;1.03;;
22794;SDS011;11564;50.920;11.612;2023-04-03T16:36:43;1.27;;;1.17;;
22794;SDS011;11564;50.920;11.612;2023-04-03T16:39:09;2.53;;;1.10;;
22794;SDS011;11564;50.920;11.612;2023-04-03T16:41:35;2.93;;;1.30;;
22794;SDS011;11564;50.920;11.612;2023-04-03T16:44:00;2.97;;;1.70;;
22794;SDS011;11564;50.920;11.612;2023-04-03T16:46:26;2.73;;;1.00;;
22794;SDS011;11564;50.920;11.612;2023-04-03T16:48:52;1.87;;;1.30;;
22794;SDS011;11564;50.920;11.612;2023-04-03T16:51:17;1.43;;;1.00;;
22794;SDS011;11564;50.920;11.612;2023-04-03T16:53:43;1.93;;;1.40;;
22794;SDS011;11564;50.920;11.612;2023-04-03T16:56:09;2.23;;;0.93;;
22794;SDS011;11564;50.920;11.612;2023-04-03T16:58:34;1.10;;;1.03;;
22794;SDS011;11564;50.920;11.612;2023-04-03T17:01:10;3.70;;;1.20;;
22794;SDS011;11564;50.920;11.612;2023-04-03T17:03:37;2.17;;;1.60;;